Freeman, Washington
Current Conditions -  °F | °C
As of 9:53 PM on Saturday 25 Oct 2014 (Local Time) from KSFF Reporting Station
Overcast Overcast  
Wind Chill: 15°   Ceiling: 9000
Heat Index: 15°   Visibility: 10mi
Dew Point:   Wind: 16mph
Humidity: 55%   Direction: 220°SW
Pressure: 29.58"   Gusts: 32mph
Location:  47.52°N, 117.2°W
Report Text: KSFF 260453Z AUTO 22014G28KT 10SM BKN090 OVC120 15/06 A2958 RMK AO2 PK WND 21028/0445 RAB10E19 SLP012 P0000 T01500061
Loading
Personal Weather Stations






























Interactive Weather Map
Tropical Storm Tracking
New forecast layout! Learn more

10-Day Weather Forecast

Advertisements
Track Severe Weather on mobile